createdAt,value
2023-02-27T00:01:41.167Z,0.22
2023-02-27T00:06:43.883Z,0.16
2023-02-27T00:11:46.768Z,0.13
2023-02-27T00:16:49.501Z,0.14
2023-02-27T00:21:52.779Z,0.13
2023-02-27T00:26:55.483Z,0.14
2023-02-27T00:31:58.793Z,0.15
2023-02-27T00:37:01.596Z,0.16
2023-02-27T00:42:04.549Z,0.17
2023-02-27T00:47:07.451Z,0.16
2023-02-27T00:52:11.224Z,0.10
2023-02-27T00:57:14.054Z,0.04
2023-02-27T01:02:17.390Z,0.03
2023-02-27T01:07:20.155Z,0.05
2023-02-27T01:12:23.044Z,0.08
2023-02-27T01:17:25.853Z,0.11
2023-02-27T01:22:28.658Z,0.14
2023-02-27T01:27:32.281Z,0.14
2023-02-27T01:32:35.124Z,0.12
2023-02-27T01:37:38.168Z,0.09
2023-02-27T01:42:41.061Z,0.04
2023-02-27T01:47:52.502Z,-0.03
2023-02-27T01:52:58.989Z,-0.08
2023-02-27T01:58:01.698Z,-0.09
2023-02-27T02:03:25.926Z,-0.09
2023-02-27T02:08:32.072Z,-0.04
2023-02-27T02:13:35.430Z,0.01
2023-02-27T02:18:46.280Z,0.03
2023-02-27T02:24:08.013Z,0.03
2023-02-27T02:29:38.815Z,0.01
2023-02-27T02:35:00.173Z,-0.04
2023-02-27T02:40:16.821Z,-0.04
2023-02-27T02:45:38.376Z,-0.01
2023-02-27T02:51:04.626Z,0.03
2023-02-27T02:56:23.294Z,0.04
2023-02-27T03:01:35.476Z,0.03
2023-02-27T03:06:43.417Z,-0.01
2023-02-27T03:11:50.676Z,-0.06
2023-02-27T03:16:58.163Z,-0.10
2023-02-27T03:22:09.567Z,-0.13
2023-02-27T03:27:13.191Z,-0.11
2023-02-27T03:32:25.226Z,-0.06
2023-02-27T03:37:52.376Z,-0.02
2023-02-27T03:43:06.203Z,0.01
2023-02-27T03:48:09.240Z,-0.02
2023-02-27T03:53:23.819Z,-0.12
2023-02-27T03:58:26.822Z,-0.23
2023-02-27T04:03:33.095Z,-0.34
2023-02-27T04:09:04.983Z,-0.45
2023-02-27T04:14:29.400Z,-0.51
2023-02-27T04:19:44.083Z,-0.51
2023-02-27T04:25:06.269Z,-0.50
2023-02-27T04:30:42.902Z,-0.57
2023-02-27T04:35:53.956Z,-0.66
2023-02-27T04:41:09.850Z,-0.78
2023-02-27T04:46:16.551Z,-0.95
2023-02-27T04:51:25.203Z,-1.12
2023-02-27T04:56:34.428Z,-1.23
2023-02-27T05:01:42.127Z,-1.25
2023-02-27T05:06:48.177Z,-1.21
2023-02-27T05:11:59.702Z,-1.18
2023-02-27T05:17:09.080Z,-1.20
2023-02-27T05:22:25.191Z,-1.28
2023-02-27T05:27:37.687Z,-1.37
2023-02-27T05:32:49.237Z,-1.45
2023-02-27T05:38:05.411Z,-1.49
2023-02-27T05:43:22.990Z,-1.45
2023-02-27T05:49:11.676Z,-1.30
2023-02-27T05:54:24.941Z,-1.28
2023-02-27T05:59:53.766Z,-1.31
2023-02-27T06:04:56.624Z,-1.32
2023-02-27T06:09:59.397Z,-1.31
2023-02-27T06:15:02.178Z,-1.26
2023-02-27T06:20:06.972Z,-1.17
2023-02-27T06:25:10.214Z,-0.99
2023-02-27T06:30:14.057Z,-0.76
2023-02-27T06:35:17.116Z,-0.51
2023-02-27T06:40:19.923Z,-0.25
2023-02-27T06:45:24.410Z,-0.02
2023-02-27T06:50:27.682Z,0.26
2023-02-27T06:55:30.478Z,0.55
2023-02-27T07:00:33.569Z,0.88
2023-02-27T07:05:36.546Z,1.32
2023-02-27T07:10:40.168Z,1.83
2023-02-27T07:15:44.741Z,2.20
2023-02-27T07:20:50.220Z,2.45
2023-02-27T07:25:52.931Z,2.60
2023-02-27T07:30:56.398Z,2.79
2023-02-27T07:35:59.819Z,3.19
2023-02-27T07:41:02.773Z,3.62
2023-02-27T07:46:05.788Z,4.00
2023-02-27T07:51:08.886Z,4.22
2023-02-27T07:56:11.869Z,4.39
2023-02-27T08:01:15.098Z,4.59
2023-02-27T08:06:18.105Z,4.81
2023-02-27T08:11:20.878Z,4.99
2023-02-27T08:16:23.660Z,5.02
2023-02-27T08:21:29.095Z,5.09
2023-02-27T08:26:32.325Z,5.33
2023-02-27T08:31:35.220Z,5.72
2023-02-27T08:36:39.272Z,6.10
2023-02-27T08:41:42.037Z,6.50
2023-02-27T08:46:45.228Z,8.30
2023-02-27T08:51:47.910Z,13.09
2023-02-27T08:56:50.706Z,17.30
2023-02-27T09:01:53.670Z,20.55
2023-02-27T09:06:58.088Z,22.68
2023-02-27T09:12:00.757Z,24.31
2023-02-27T09:17:03.662Z,24.68
2023-02-27T09:22:06.477Z,23.86
2023-02-27T09:27:09.279Z,25.05
2023-02-27T09:32:12.696Z,25.29
2023-02-27T09:37:16.565Z,25.90
2023-02-27T09:42:24.619Z,27.31
2023-02-27T09:47:37.385Z,28.48
2023-02-27T09:52:40.189Z,29.72
2023-02-27T09:57:52.101Z,30.51
2023-02-27T10:02:58.839Z,30.91
2023-02-27T10:08:40.208Z,31.58
2023-02-27T10:13:50.686Z,32.32
2023-02-27T10:19:06.297Z,32.40
2023-02-27T10:24:34.344Z,30.73
2023-02-27T10:29:41.721Z,26.39
2023-02-27T10:34:54.031Z,22.36
2023-02-27T10:40:01.251Z,20.16
2023-02-27T10:45:05.942Z,18.44
2023-02-27T10:50:27.209Z,16.14
2023-02-27T10:55:33.079Z,18.31
2023-02-27T11:00:45.304Z,20.46
2023-02-27T11:06:00.721Z,21.47
2023-02-27T11:11:07.179Z,23.10
2023-02-27T11:16:15.410Z,22.75
2023-02-27T11:21:20.521Z,25.36
2023-02-27T11:26:36.353Z,27.40
2023-02-27T11:31:39.985Z,28.96
2023-02-27T11:36:46.625Z,29.85
2023-02-27T11:41:50.199Z,30.38
2023-02-27T11:47:08.588Z,30.80
2023-02-27T11:52:20.994Z,30.89
2023-02-27T11:57:38.651Z,31.00
2023-02-27T12:02:53.467Z,30.95
2023-02-27T12:08:06.680Z,30.90
2023-02-27T12:13:21.335Z,30.24
2023-02-27T12:18:28.568Z,27.27
2023-02-27T12:23:41.718Z,24.77
2023-02-27T12:28:44.520Z,24.12
2023-02-27T12:34:01.770Z,23.69
2023-02-27T12:39:05.510Z,25.56
2023-02-27T12:44:33.267Z,26.67
2023-02-27T12:49:56.529Z,23.62
2023-02-27T12:55:06.216Z,20.30
2023-02-27T13:00:15.170Z,21.91
2023-02-27T13:05:33.028Z,23.92
2023-02-27T13:11:13.019Z,25.38
2023-02-27T13:16:25.972Z,25.82
2023-02-27T13:21:51.472Z,25.72
2023-02-27T13:27:24.230Z,25.42
2023-02-27T13:32:46.778Z,25.07
2023-02-27T13:38:32.530Z,24.73
2023-02-27T13:43:51.128Z,24.53
2023-02-27T13:49:28.080Z,23.97
2023-02-27T13:54:33.990Z,23.47
2023-02-27T13:59:41.902Z,22.72
2023-02-27T14:04:50.949Z,22.16
2023-02-27T14:10:04.394Z,21.74
2023-02-27T14:15:30.545Z,21.27
2023-02-27T14:20:33.233Z,20.97
2023-02-27T14:25:40.145Z,20.83
2023-02-27T14:30:51.486Z,20.64
2023-02-27T14:36:04.321Z,20.16
2023-02-27T14:41:12.653Z,19.61
2023-02-27T14:46:35.237Z,17.98
2023-02-27T14:51:38.637Z,16.73
2023-02-27T14:56:52.895Z,15.87
2023-02-27T15:01:58.429Z,15.61
2023-02-27T15:07:01.562Z,14.80
2023-02-27T15:12:05.107Z,12.84
2023-02-27T15:17:23.125Z,11.03
2023-02-27T15:22:38.882Z,9.76
2023-02-27T15:27:42.610Z,9.56
2023-02-27T15:32:45.335Z,9.53
2023-02-27T15:37:55.030Z,9.20
2023-02-27T15:42:59.558Z,8.42
2023-02-27T15:48:04.105Z,7.35
2023-02-27T15:53:25.525Z,6.41
2023-02-27T15:58:37.614Z,5.72
2023-02-27T16:03:45.048Z,5.02
2023-02-27T16:09:01.665Z,4.33
2023-02-27T16:14:06.162Z,3.72
2023-02-27T16:19:27.414Z,3.21
2023-02-27T16:24:32.032Z,2.76
2023-02-27T16:29:37.267Z,2.38
2023-02-27T16:34:45.488Z,2.03
2023-02-27T16:39:52.285Z,1.73
2023-02-27T16:44:55.126Z,1.45
2023-02-27T16:49:58.350Z,1.18
2023-02-27T16:55:01.524Z,0.94
2023-02-27T17:00:08.955Z,0.74
2023-02-27T17:05:11.774Z,0.50
2023-02-27T17:10:17.108Z,0.32
2023-02-27T17:15:21.031Z,0.12
2023-02-27T17:20:26.180Z,-0.04
2023-02-27T17:25:29.189Z,-0.18
2023-02-27T17:30:31.962Z,-0.27
2023-02-27T17:35:34.884Z,-0.37
2023-02-27T17:40:39.391Z,-0.51
2023-02-27T17:45:42.316Z,-0.66
2023-02-27T17:50:45.338Z,-0.84
2023-02-27T17:55:48.353Z,-0.99
2023-02-27T18:00:51.162Z,-1.11
2023-02-27T18:05:53.895Z,-1.23
2023-02-27T18:10:56.655Z,-1.37
2023-02-27T18:15:59.448Z,-1.47
2023-02-27T18:21:05.307Z,-1.54
2023-02-27T18:26:17.196Z,-1.60
2023-02-27T18:31:30.397Z,-1.65
2023-02-27T18:36:34.368Z,-1.71
2023-02-27T18:41:37.923Z,-1.83
2023-02-27T18:46:42.507Z,-1.95
2023-02-27T18:51:45.484Z,-2.07
2023-02-27T18:56:51.099Z,-2.18
2023-02-27T19:01:55.210Z,-2.29
2023-02-27T19:06:57.925Z,-2.39
2023-02-27T19:12:01.004Z,-2.48
2023-02-27T19:17:04.315Z,-2.56
2023-02-27T19:22:07.112Z,-2.61
2023-02-27T19:27:10.822Z,-2.68
2023-02-27T19:32:14.827Z,-2.74
2023-02-27T19:37:17.825Z,-2.79
2023-02-27T19:42:20.575Z,-2.82
2023-02-27T19:47:24.004Z,-2.85
2023-02-27T19:52:26.905Z,-2.92
2023-02-27T19:57:29.636Z,-2.99
2023-02-27T20:02:32.721Z,-3.07
2023-02-27T20:07:35.605Z,-3.14
2023-02-27T20:12:38.317Z,-3.23
2023-02-27T20:17:42.185Z,-3.30
2023-02-27T20:22:44.968Z,-3.35
2023-02-27T20:27:48.237Z,-3.39
2023-02-27T20:32:51.087Z,-3.44
2023-02-27T20:37:54.154Z,-3.51
2023-02-27T20:42:57.674Z,-3.57
2023-02-27T20:48:00.351Z,-3.61
2023-02-27T20:53:03.141Z,-3.64
2023-02-27T20:58:05.947Z,-3.68
2023-02-27T21:03:08.712Z,-3.73
2023-02-27T21:08:11.556Z,-3.74
2023-02-27T21:13:14.684Z,-3.76
2023-02-27T21:18:17.377Z,-3.77
2023-02-27T21:23:20.068Z,-3.83
2023-02-27T21:28:23.192Z,-3.88
2023-02-27T21:33:26.554Z,-3.94
2023-02-27T21:38:30.135Z,-4.00
2023-02-27T21:43:34.079Z,-4.06
2023-02-27T21:48:37.789Z,-4.12
2023-02-27T21:53:40.578Z,-4.15
2023-02-27T21:58:43.268Z,-4.21
2023-02-27T22:03:47.615Z,-4.25
2023-02-27T22:08:58.614Z,-4.30
2023-02-27T22:14:01.820Z,-4.36
2023-02-27T22:19:09.840Z,-4.41
2023-02-27T22:24:12.566Z,-4.47
2023-02-27T22:29:15.533Z,-4.55
2023-02-27T22:34:19.215Z,-4.59
2023-02-27T22:39:22.289Z,-4.55
2023-02-27T22:44:25.083Z,-4.47
2023-02-27T22:49:27.792Z,-4.36
2023-02-27T22:54:30.784Z,-4.21
2023-02-27T22:59:33.587Z,-4.11
2023-02-27T23:04:36.390Z,-4.00
2023-02-27T23:09:39.185Z,-3.87
2023-02-27T23:14:42.136Z,-3.77
2023-02-27T23:19:46.031Z,-3.70
2023-02-27T23:24:48.820Z,-3.69
2023-02-27T23:29:51.622Z,-3.71
2023-02-27T23:34:54.303Z,-3.79
2023-02-27T23:39:57.019Z,-3.90
2023-02-27T23:44:59.767Z,-4.07
2023-02-27T23:50:02.617Z,-4.23
2023-02-27T23:55:06.778Z,-4.38
